Airport View

Enter AWOS ICAO identifier for current METAR.

ex. KFNL

KFVX 192355Z AUTO 00000KT 5SM BR CLR 13/13 A3025 RMK AO2 T01330130 10212 20133

20 Oct 2020 00:01

Frequency: 132.725

Phone: 434-392-9718

Other Area AWOS: KW81 - KW31 - KBKT - K0V4

TAF KLYH 192328Z 2000/2024 20006KT P6SM FEW200 FM200600 00000KT 6SM BR SCT010 FM200800 00000KT 1 1/2SM BR BKN007 FM201300 VRB03KT 6SM BR SCT010 FM201600 21004KT P6SM SCT060